createdAt,value
2023-03-06T00:01:03.030Z,58.27
2023-03-06T00:03:34.419Z,58.19
2023-03-06T00:06:04.540Z,58.85
2023-03-06T00:08:34.418Z,58.66
2023-03-06T00:11:03.809Z,58.58
2023-03-06T00:13:34.915Z,58.77
2023-03-06T00:16:04.093Z,59.21
2023-03-06T00:18:34.152Z,59.29
2023-03-06T00:21:08.164Z,59.12
2023-03-06T00:23:38.363Z,59.19
2023-03-06T00:26:09.155Z,58.87
2023-03-06T00:28:38.341Z,58.99
2023-03-06T00:31:07.319Z,59.07
2023-03-06T00:33:36.486Z,59.32
2023-03-06T00:36:06.791Z,59.27
2023-03-06T00:38:37.969Z,59.06
2023-03-06T00:41:12.256Z,58.91
2023-03-06T00:43:41.362Z,59.03
2023-03-06T00:46:10.654Z,59.19
2023-03-06T00:48:39.757Z,58.94
2023-03-06T00:51:09.815Z,58.79
2023-03-06T00:53:40.372Z,58.87
2023-03-06T00:56:10.271Z,59.07
2023-03-06T00:58:40.298Z,59.29
2023-03-06T01:01:09.602Z,59.36
2023-03-06T01:03:39.245Z,58.97
2023-03-06T01:06:08.719Z,59.07
2023-03-06T01:08:38.189Z,59.15
2023-03-06T01:11:07.450Z,59.28
2023-03-06T01:13:36.967Z,59.40
2023-03-06T01:16:17.207Z,58.99
2023-03-06T01:18:47.043Z,59.44
2023-03-06T01:21:16.873Z,59.74
2023-03-06T01:23:45.799Z,60.04
2023-03-06T01:26:15.638Z,60.53
2023-03-06T01:28:44.866Z,60.46
2023-03-06T01:31:15.903Z,60.74
2023-03-06T01:33:45.754Z,60.72
2023-03-06T01:36:15.017Z,61.05
2023-03-06T01:38:44.467Z,61.46
2023-03-06T01:41:16.091Z,61.76
2023-03-06T01:43:47.838Z,61.50
2023-03-06T01:46:29.271Z,61.83
2023-03-06T01:48:58.198Z,62.31
2023-03-06T01:51:33.065Z,62.54
2023-03-06T01:54:09.376Z,62.72
2023-03-06T01:56:40.611Z,62.86
2023-03-06T01:59:09.804Z,62.97
2023-03-06T02:01:41.100Z,63.16
2023-03-06T02:04:11.765Z,63.42
2023-03-06T02:06:45.735Z,62.93
2023-03-06T02:09:15.316Z,62.64
2023-03-06T02:11:46.977Z,62.18
2023-03-06T02:14:17.896Z,62.80
2023-03-06T02:16:47.057Z,63.20
2023-03-06T02:19:28.043Z,62.83
2023-03-06T02:21:57.451Z,62.49
2023-03-06T02:24:43.242Z,62.22
2023-03-06T02:27:15.014Z,62.16
2023-03-06T02:29:44.837Z,61.93
2023-03-06T02:32:14.254Z,61.87
2023-03-06T02:34:43.399Z,61.93
2023-03-06T02:37:13.008Z,62.02
2023-03-06T02:39:47.952Z,62.80
2023-03-06T02:42:26.545Z,62.76
2023-03-06T02:44:57.903Z,62.36
2023-03-06T02:47:26.907Z,61.92
2023-03-06T02:49:55.910Z,61.65
2023-03-06T02:52:25.068Z,62.47
2023-03-06T02:54:54.317Z,62.51
2023-03-06T02:57:23.660Z,62.25
2023-03-06T02:59:53.155Z,62.81
2023-03-06T03:02:22.172Z,63.45
2023-03-06T03:04:51.265Z,63.79
2023-03-06T03:07:20.172Z,63.60
2023-03-06T03:09:49.315Z,63.20
2023-03-06T03:12:18.403Z,62.75
2023-03-06T03:14:47.478Z,62.74
2023-03-06T03:17:16.866Z,62.57
2023-03-06T03:19:45.895Z,62.50
2023-03-06T03:22:15.234Z,62.20
2023-03-06T03:24:44.619Z,61.76
2023-03-06T03:27:14.940Z,61.63
2023-03-06T03:29:44.689Z,61.83
2023-03-06T03:32:13.950Z,61.96
2023-03-06T03:34:43.217Z,61.41
2023-03-06T03:37:12.319Z,61.36
2023-03-06T03:39:41.800Z,61.58
2023-03-06T03:42:11.322Z,61.75
2023-03-06T03:44:40.662Z,61.63
2023-03-06T03:47:09.576Z,61.70
2023-03-06T03:49:40.311Z,61.65
2023-03-06T03:52:09.355Z,61.85
2023-03-06T03:54:38.230Z,62.12
2023-03-06T03:57:07.529Z,62.03
2023-03-06T03:59:36.357Z,62.01
2023-03-06T04:02:05.466Z,62.01
2023-03-06T04:04:34.846Z,62.01
2023-03-06T04:07:04.754Z,62.04
2023-03-06T04:09:33.769Z,62.16
2023-03-06T04:12:02.939Z,62.06
2023-03-06T04:14:32.046Z,62.14
2023-03-06T04:17:00.868Z,62.53
2023-03-06T04:19:29.636Z,62.77
2023-03-06T04:21:59.139Z,62.67
2023-03-06T04:24:27.966Z,62.36
2023-03-06T04:26:56.750Z,62.52
2023-03-06T04:29:25.618Z,62.68
2023-03-06T04:31:54.373Z,62.85
2023-03-06T04:34:23.209Z,62.73
2023-03-06T04:36:52.400Z,62.44
2023-03-06T04:39:21.957Z,62.60
2023-03-06T04:41:51.146Z,62.89
2023-03-06T04:44:20.081Z,62.70
2023-03-06T04:46:49.347Z,62.76
2023-03-06T04:49:18.509Z,62.81
2023-03-06T04:51:47.615Z,62.55
2023-03-06T04:54:18.889Z,62.81
2023-03-06T04:56:48.258Z,62.82
2023-03-06T04:59:17.456Z,62.83
2023-03-06T05:01:46.644Z,62.68
2023-03-06T05:04:15.786Z,62.87
2023-03-06T05:06:44.784Z,62.88
2023-03-06T05:09:13.787Z,62.78
2023-03-06T05:11:42.883Z,62.80
2023-03-06T05:14:11.899Z,62.69
2023-03-06T05:16:40.983Z,62.56
2023-03-06T05:19:10.144Z,62.68
2023-03-06T05:21:39.135Z,62.59
2023-03-06T05:24:08.224Z,62.27
2023-03-06T05:26:37.647Z,62.41
2023-03-06T05:29:07.362Z,62.40
2023-03-06T05:31:36.659Z,62.51
2023-03-06T05:34:06.419Z,62.79
2023-03-06T05:36:35.282Z,62.35
2023-03-06T05:39:04.528Z,62.04
2023-03-06T05:41:35.146Z,61.89
2023-03-06T05:44:04.147Z,62.18
2023-03-06T05:46:33.491Z,62.53
2023-03-06T05:49:02.740Z,62.10
2023-03-06T05:51:31.916Z,61.94
2023-03-06T05:54:01.364Z,62.09
2023-03-06T05:56:30.795Z,62.56
2023-03-06T05:59:00.154Z,62.59
2023-03-06T06:01:30.376Z,62.67
2023-03-06T06:03:59.474Z,62.82
2023-03-06T06:06:29.181Z,63.17
2023-03-06T06:08:58.597Z,63.54
2023-03-06T06:11:27.782Z,63.49
2023-03-06T06:13:57.127Z,63.74
2023-03-06T06:16:26.362Z,64.20
2023-03-06T06:18:55.587Z,64.75
2023-03-06T06:21:24.771Z,65.14
2023-03-06T06:23:54.098Z,65.31
2023-03-06T06:26:23.274Z,65.50
2023-03-06T06:28:52.782Z,65.75
2023-03-06T06:31:21.694Z,65.76
2023-03-06T06:33:50.839Z,65.32
2023-03-06T06:36:22.210Z,64.84
2023-03-06T06:38:51.397Z,64.23
2023-03-06T06:41:42.742Z,64.12
2023-03-06T06:44:14.900Z,63.51
2023-03-06T06:49:35.201Z,62.59
2023-03-06T06:52:06.798Z,62.41
2023-03-06T06:54:35.797Z,62.75
2023-03-06T06:57:04.899Z,62.44
2023-03-06T06:59:34.225Z,61.35
2023-03-06T07:02:03.354Z,60.58
2023-03-06T07:04:32.992Z,59.64
2023-03-06T07:07:02.908Z,58.28
2023-03-06T07:09:32.148Z,56.23
2023-03-06T07:12:01.549Z,55.15
2023-03-06T07:14:30.768Z,54.44
2023-03-06T07:16:59.985Z,53.86
2023-03-06T07:19:29.281Z,52.46
2023-03-06T07:21:58.806Z,51.22
2023-03-06T07:24:28.875Z,49.81
2023-03-06T07:26:58.362Z,48.43
2023-03-06T07:29:27.440Z,46.46
2023-03-06T07:31:56.746Z,44.84
2023-03-06T07:34:25.898Z,42.90
2023-03-06T07:36:54.854Z,41.17
2023-03-06T07:39:27.331Z,39.58
2023-03-06T07:41:59.123Z,37.93
2023-03-06T07:44:28.985Z,36.86
2023-03-06T07:46:57.965Z,36.22
2023-03-06T07:49:27.372Z,35.26
2023-03-06T07:51:57.100Z,34.83
2023-03-06T07:54:26.422Z,33.71
2023-03-06T07:56:55.750Z,33.38
2023-03-06T07:59:26.329Z,32.70
2023-03-06T08:01:56.946Z,31.89
2023-03-06T08:04:26.724Z,31.14
2023-03-06T08:07:00.050Z,30.46
2023-03-06T08:09:30.606Z,30.12
2023-03-06T08:11:59.954Z,30.16
2023-03-06T08:14:29.576Z,29.63
2023-03-06T08:16:58.779Z,30.08
2023-03-06T08:19:28.462Z,31.15
2023-03-06T08:21:58.763Z,30.62
2023-03-06T08:24:27.964Z,29.83
2023-03-06T08:26:57.190Z,28.63
2023-03-06T08:29:26.934Z,27.47
2023-03-06T08:31:56.409Z,26.58
2023-03-06T08:34:26.475Z,26.03
2023-03-06T08:36:55.835Z,25.64
2023-03-06T08:39:25.158Z,25.42
2023-03-06T08:41:54.393Z,24.84
2023-03-06T08:44:23.464Z,23.87
2023-03-06T08:46:52.925Z,23.40
2023-03-06T08:49:22.891Z,22.58
2023-03-06T08:51:52.794Z,22.50
2023-03-06T08:54:22.599Z,22.33
2023-03-06T08:56:53.064Z,21.92
2023-03-06T08:59:22.943Z,21.85
2023-03-06T09:01:52.598Z,21.36
2023-03-06T09:04:22.136Z,21.21
2023-03-06T09:06:53.112Z,21.26
2023-03-06T09:09:23.727Z,20.68
2023-03-06T09:11:54.185Z,20.91
2023-03-06T09:14:24.269Z,20.50
2023-03-06T09:16:54.263Z,20.01
2023-03-06T09:19:23.880Z,20.56
2023-03-06T09:21:54.693Z,20.59
2023-03-06T09:24:24.238Z,20.49
2023-03-06T09:26:54.187Z,20.26
2023-03-06T09:29:23.914Z,20.41
2023-03-06T09:31:53.489Z,20.46
2023-03-06T09:34:23.280Z,20.35
2023-03-06T09:36:57.303Z,20.01
2023-03-06T09:39:27.946Z,20.07
2023-03-06T09:41:59.212Z,20.19
2023-03-06T09:44:32.272Z,19.49
2023-03-06T09:47:32.199Z,19.39
2023-03-06T09:50:24.860Z,19.30
2023-03-06T09:53:00.578Z,19.39
2023-03-06T09:55:37.275Z,19.11
2023-03-06T09:58:24.408Z,18.20
2023-03-06T10:01:14.517Z,18.07
2023-03-06T10:04:10.543Z,18.07
2023-03-06T10:06:48.952Z,17.63
2023-03-06T10:09:25.648Z,17.76
2023-03-06T10:12:07.709Z,19.41
2023-03-06T10:14:55.100Z,19.33
2023-03-06T10:17:26.746Z,19.19
2023-03-06T10:19:56.460Z,18.79
2023-03-06T10:22:43.708Z,19.30
2023-03-06T10:25:28.517Z,20.87
2023-03-06T10:28:18.897Z,20.69
2023-03-06T10:30:55.112Z,19.96
2023-03-06T10:33:46.774Z,19.51
2023-03-06T10:36:18.914Z,18.48
2023-03-06T10:38:50.106Z,17.38
2023-03-06T10:41:25.478Z,17.10
2023-03-06T10:44:00.747Z,17.14
2023-03-06T10:46:45.407Z,16.70
2023-03-06T10:49:37.391Z,16.09
2023-03-06T10:52:16.596Z,16.54
2023-03-06T10:54:48.755Z,16.20
2023-03-06T10:57:32.708Z,15.58
2023-03-06T11:00:24.873Z,15.08
2023-03-06T11:03:23.289Z,15.15
2023-03-06T11:06:05.573Z,15.10
2023-03-06T11:08:36.034Z,15.35
2023-03-06T11:11:13.512Z,15.60
2023-03-06T11:13:44.477Z,15.31
2023-03-06T11:16:27.289Z,15.50
2023-03-06T11:19:06.255Z,15.45
2023-03-06T11:21:40.600Z,15.61
2023-03-06T11:24:18.707Z,15.60
2023-03-06T11:26:57.050Z,15.77
2023-03-06T11:29:43.693Z,16.30
2023-03-06T11:32:13.738Z,17.03
2023-03-06T11:34:58.203Z,16.34
2023-03-06T11:37:45.890Z,15.90
2023-03-06T11:40:31.583Z,16.03
2023-03-06T11:43:31.222Z,16.15
2023-03-06T11:46:18.537Z,16.12
2023-03-06T11:48:59.041Z,15.48
2023-03-06T11:51:34.489Z,17.00
2023-03-06T11:54:07.260Z,18.73
2023-03-06T11:56:54.463Z,19.85
2023-03-06T11:59:36.916Z,20.83
2023-03-06T12:02:53.821Z,19.72
2023-03-06T12:06:05.491Z,19.75
2023-03-06T12:08:46.386Z,22.12
2023-03-06T12:11:25.516Z,23.68
2023-03-06T12:14:04.265Z,25.07
2023-03-06T12:16:48.781Z,26.41
2023-03-06T12:19:52.902Z,28.27
2023-03-06T12:23:14.856Z,30.32
2023-03-06T12:25:57.335Z,32.25
2023-03-06T12:28:47.585Z,32.89
2023-03-06T12:31:34.947Z,33.81
2023-03-06T12:34:16.542Z,34.68
2023-03-06T12:36:55.508Z,35.22
2023-03-06T12:39:36.603Z,36.43
2023-03-06T12:42:38.143Z,37.19
2023-03-06T12:45:37.627Z,38.34
2023-03-06T12:48:17.494Z,39.29
2023-03-06T12:50:48.548Z,40.04
2023-03-06T12:53:35.634Z,41.06
2023-03-06T12:56:06.679Z,41.76
2023-03-06T12:58:48.381Z,42.55
2023-03-06T13:01:38.023Z,42.66
2023-03-06T13:04:26.128Z,42.96
2023-03-06T13:07:19.907Z,43.37
2023-03-06T13:10:22.815Z,44.50
2023-03-06T13:13:05.739Z,44.54
2023-03-06T13:15:44.601Z,45.30
2023-03-06T13:18:23.033Z,45.88
2023-03-06T13:20:56.916Z,45.55
2023-03-06T13:23:36.057Z,45.17
2023-03-06T13:26:06.729Z,46.44
2023-03-06T13:28:58.682Z,47.85
2023-03-06T13:31:49.854Z,48.60
2023-03-06T13:34:40.261Z,48.57
2023-03-06T13:37:18.919Z,48.98
2023-03-06T13:39:54.109Z,49.62
2023-03-06T13:42:33.451Z,50.11
2023-03-06T13:45:24.046Z,50.46
2023-03-06T13:50:49.112Z,51.79
2023-03-06T13:53:41.291Z,52.20
2023-03-06T13:56:26.017Z,52.74
2023-03-06T13:59:09.779Z,53.38
2023-03-06T14:01:41.751Z,54.61
2023-03-06T14:04:39.344Z,55.21
2023-03-06T14:07:08.920Z,55.78
2023-03-06T14:09:44.112Z,56.54
2023-03-06T14:12:25.476Z,57.12
2023-03-06T14:15:12.814Z,57.67
2023-03-06T14:17:59.789Z,56.76
2023-03-06T14:20:45.596Z,56.61
2023-03-06T14:23:16.058Z,56.35
2023-03-06T14:25:49.306Z,55.84
2023-03-06T14:28:27.984Z,55.23
2023-03-06T14:30:59.931Z,56.34
2023-03-06T14:33:39.708Z,55.81
2023-03-06T14:36:16.043Z,54.99
2023-03-06T14:38:52.448Z,55.08
2023-03-06T14:41:33.708Z,55.09
2023-03-06T14:44:09.689Z,54.98
2023-03-06T14:46:39.977Z,55.69
2023-03-06T14:49:09.730Z,55.77
2023-03-06T14:52:03.581Z,56.28
2023-03-06T14:54:37.795Z,55.80
2023-03-06T14:57:16.610Z,56.01
2023-03-06T14:59:59.101Z,56.33
2023-03-06T15:02:33.610Z,56.33
2023-03-06T15:05:23.928Z,56.33
2023-03-06T15:07:57.741Z,56.16
2023-03-06T15:10:31.025Z,55.79
2023-03-06T15:13:24.627Z,55.27
2023-03-06T15:16:05.556Z,55.31
2023-03-06T15:18:54.873Z,55.49
2023-03-06T15:21:27.466Z,55.58
2023-03-06T15:23:58.993Z,55.83
2023-03-06T15:26:37.344Z,55.65
2023-03-06T15:29:11.190Z,55.86
2023-03-06T15:31:47.547Z,55.65
2023-03-06T15:34:24.819Z,55.09
2023-03-06T15:36:58.337Z,54.28
2023-03-06T15:39:30.640Z,52.84
2023-03-06T15:42:26.048Z,50.65
2023-03-06T15:45:04.352Z,48.44
2023-03-06T15:47:34.140Z,46.20
2023-03-06T15:50:04.369Z,44.39
2023-03-06T15:52:36.396Z,42.99
2023-03-06T15:55:06.955Z,42.28
2023-03-06T15:57:36.410Z,42.55
2023-03-06T16:00:26.414Z,43.03
2023-03-06T16:02:59.784Z,43.19
2023-03-06T16:05:29.751Z,43.68
2023-03-06T16:07:59.799Z,44.35
2023-03-06T16:10:32.506Z,45.01
2023-03-06T16:13:13.470Z,45.26
2023-03-06T16:15:51.760Z,45.24
2023-03-06T16:18:21.020Z,45.11
2023-03-06T16:20:50.433Z,45.31
2023-03-06T16:23:19.747Z,45.81
2023-03-06T16:25:50.533Z,46.54
2023-03-06T16:28:19.817Z,46.58
2023-03-06T16:30:49.073Z,46.45
2023-03-06T16:33:18.215Z,46.69
2023-03-06T16:35:47.944Z,47.00
2023-03-06T16:38:17.750Z,46.91
2023-03-06T16:40:46.910Z,46.80
2023-03-06T16:43:17.879Z,46.97
2023-03-06T16:45:47.614Z,47.47
2023-03-06T16:48:20.251Z,48.11
2023-03-06T16:50:50.053Z,48.43
2023-03-06T16:53:19.896Z,48.32
2023-03-06T16:55:49.739Z,48.49
2023-03-06T16:58:20.356Z,48.72
2023-03-06T17:00:49.624Z,49.03
2023-03-06T17:03:19.749Z,49.31
2023-03-06T17:05:49.330Z,49.62
2023-03-06T17:08:18.917Z,49.93
2023-03-06T17:10:50.284Z,50.20
2023-03-06T17:13:21.268Z,50.48
2023-03-06T17:15:56.827Z,50.73
2023-03-06T17:18:30.733Z,50.83
2023-03-06T17:21:01.438Z,51.18
2023-03-06T17:23:31.986Z,51.53
2023-03-06T17:26:05.505Z,51.79
2023-03-06T17:28:36.579Z,52.03
2023-03-06T17:31:14.481Z,52.23
2023-03-06T17:33:44.948Z,52.47
2023-03-06T17:36:16.845Z,52.87
2023-03-06T17:38:50.080Z,52.98
2023-03-06T17:41:25.612Z,53.13
2023-03-06T17:43:59.881Z,53.45
2023-03-06T17:46:32.963Z,53.72
2023-03-06T17:49:03.202Z,53.32
2023-03-06T17:51:33.578Z,53.25
2023-03-06T17:54:03.186Z,53.36
2023-03-06T17:56:33.564Z,53.35
2023-03-06T17:59:06.534Z,53.34
2023-03-06T18:01:38.595Z,53.46
2023-03-06T18:04:09.589Z,53.66
2023-03-06T18:06:41.651Z,54.05
2023-03-06T18:09:14.651Z,54.49
2023-03-06T18:11:45.910Z,54.74
2023-03-06T18:14:15.707Z,54.62
2023-03-06T18:16:46.327Z,54.56
2023-03-06T18:19:22.181Z,54.65
2023-03-06T18:21:56.633Z,54.73
2023-03-06T18:24:27.881Z,55.02
2023-03-06T18:27:04.330Z,55.39
2023-03-06T18:29:37.425Z,55.84
2023-03-06T18:32:11.906Z,56.00
2023-03-06T18:34:43.317Z,56.18
2023-03-06T18:37:13.286Z,56.46
2023-03-06T18:39:49.110Z,56.88
2023-03-06T18:42:20.013Z,57.63
2023-03-06T18:44:52.165Z,57.87
2023-03-06T18:47:24.448Z,57.87
2023-03-06T18:49:54.710Z,58.02
2023-03-06T18:52:25.356Z,57.87
2023-03-06T18:54:55.303Z,58.25
2023-03-06T18:57:25.656Z,58.60
2023-03-06T18:59:57.229Z,58.58
2023-03-06T19:02:27.012Z,58.82
2023-03-06T19:04:58.065Z,59.29
2023-03-06T19:07:28.410Z,59.30
2023-03-06T19:09:58.763Z,59.53
2023-03-06T19:12:29.071Z,59.51
2023-03-06T19:15:00.089Z,59.34
2023-03-06T19:17:32.452Z,59.37
2023-03-06T19:20:03.090Z,59.46
2023-03-06T19:22:36.524Z,59.53
2023-03-06T19:25:09.959Z,59.18
2023-03-06T19:27:40.555Z,58.95
2023-03-06T19:30:12.721Z,58.65
2023-03-06T19:32:48.321Z,58.39
2023-03-06T19:35:22.207Z,58.39
2023-03-06T19:37:54.654Z,58.53
2023-03-06T19:40:25.723Z,58.17
2023-03-06T19:42:57.896Z,57.88
2023-03-06T19:45:29.321Z,57.64
2023-03-06T19:48:01.649Z,57.86
2023-03-06T19:50:32.103Z,57.87
2023-03-06T19:53:03.679Z,57.95
2023-03-06T19:55:36.210Z,57.73
2023-03-06T19:58:10.547Z,57.27
2023-03-06T20:00:43.111Z,57.06
2023-03-06T20:03:13.058Z,57.20
2023-03-06T20:05:50.284Z,57.46
2023-03-06T20:08:20.728Z,57.63
2023-03-06T20:10:51.856Z,57.99
2023-03-06T20:13:23.111Z,58.05
2023-03-06T20:15:55.319Z,58.13
2023-03-06T20:18:29.226Z,57.96
2023-03-06T20:21:08.047Z,58.18
2023-03-06T20:23:40.219Z,58.47
2023-03-06T20:26:13.207Z,58.62
2023-03-06T20:28:44.078Z,58.52
2023-03-06T20:31:22.000Z,58.53
2023-03-06T20:33:55.964Z,58.66
2023-03-06T20:36:34.467Z,58.82
2023-03-06T20:39:10.400Z,58.94
2023-03-06T20:41:42.807Z,58.96
2023-03-06T20:44:17.389Z,58.83
2023-03-06T20:46:50.050Z,59.04
2023-03-06T20:49:22.134Z,59.52
2023-03-06T20:51:52.890Z,59.81
2023-03-06T20:54:22.743Z,59.76
2023-03-06T20:56:55.522Z,59.62
2023-03-06T20:59:30.159Z,59.85
2023-03-06T21:02:00.794Z,60.29
2023-03-06T21:04:31.970Z,60.88
2023-03-06T21:07:05.699Z,60.88
2023-03-06T21:09:39.380Z,60.97
2023-03-06T21:12:13.169Z,61.22
2023-03-06T21:14:46.033Z,61.46
2023-03-06T21:17:17.642Z,62.19
2023-03-06T21:19:50.031Z,62.17
2023-03-06T21:22:20.704Z,61.91
2023-03-06T21:24:53.945Z,61.90
2023-03-06T21:27:26.262Z,62.08
2023-03-06T21:29:56.822Z,61.79
2023-03-06T21:32:27.194Z,61.97
2023-03-06T21:34:57.958Z,61.55
2023-03-06T21:37:27.871Z,60.77
2023-03-06T21:40:01.898Z,61.06
2023-03-06T21:42:31.486Z,61.39
2023-03-06T21:45:01.749Z,61.53
2023-03-06T21:47:38.583Z,62.16
2023-03-06T21:50:12.789Z,62.63
2023-03-06T21:52:43.986Z,63.27
2023-03-06T21:55:13.394Z,63.34
2023-03-06T21:57:43.184Z,62.94
2023-03-06T22:00:13.643Z,63.03
2023-03-06T22:02:43.029Z,63.38
2023-03-06T22:05:12.640Z,63.80
2023-03-06T22:07:42.959Z,63.46
2023-03-06T22:10:15.028Z,63.45
2023-03-06T22:12:47.474Z,63.49
2023-03-06T22:15:17.485Z,63.70
2023-03-06T22:17:49.175Z,63.63
2023-03-06T22:20:19.121Z,63.14
2023-03-06T22:22:50.305Z,62.38
2023-03-06T22:25:21.910Z,61.72
2023-03-06T22:27:52.954Z,61.87
2023-03-06T22:30:22.820Z,62.57
2023-03-06T22:32:56.124Z,62.54
2023-03-06T22:35:27.624Z,62.80
2023-03-06T22:37:59.178Z,63.23
2023-03-06T22:40:29.176Z,63.59
2023-03-06T22:43:00.122Z,63.98
2023-03-06T22:45:29.420Z,64.07
2023-03-06T22:48:10.333Z,64.47
2023-03-06T22:50:42.123Z,65.03
2023-03-06T22:53:12.172Z,64.82
2023-03-06T22:55:41.482Z,64.45
2023-03-06T22:58:10.890Z,64.46
2023-03-06T23:00:40.516Z,64.17
2023-03-06T23:03:10.138Z,64.74
2023-03-06T23:05:43.345Z,64.26
2023-03-06T23:08:13.108Z,63.57
2023-03-06T23:10:43.008Z,63.34
2023-03-06T23:13:12.834Z,63.76
2023-03-06T23:15:43.762Z,63.44
2023-03-06T23:18:13.618Z,63.54
2023-03-06T23:20:44.259Z,63.89
2023-03-06T23:23:14.102Z,63.49
2023-03-06T23:25:44.980Z,63.80
2023-03-06T23:28:15.203Z,63.41
2023-03-06T23:30:45.531Z,63.34
2023-03-06T23:33:15.052Z,63.04
2023-03-06T23:35:45.422Z,63.30
2023-03-06T23:38:14.374Z,63.75
2023-03-06T23:40:44.598Z,63.84
2023-03-06T23:43:14.745Z,64.36
2023-03-06T23:45:54.554Z,65.03
2023-03-06T23:48:24.682Z,65.22
2023-03-06T23:50:55.095Z,65.40
2023-03-06T23:53:25.289Z,65.11
2023-03-06T23:55:54.957Z,64.63
2023-03-06T23:58:24.118Z,64.29
